Startpagina
METAR-TAF:

METAR-TAF

Vliegvelden :

Vliegbasis Chièvres

Chièvres, België

breedte: 50-34N, lengte: 003-50E, hoogte: 60 m

Actueel weer

Dit bericht is 16 minuten geleden gemaakt, om 15:55 UTC
Wind 5 kt uit het noordoosten
Temperatuur 22°C
Vochtigheid 46%
Druk 1018 hPa
Zicht 10 km of meer

METAR: EBCV 201555Z AUTO 04005KT 9999 NCD 22/10 Q1018 BLU

Tijdstip: 18:11 (16:11 UTC)

Verwachting

Dit bericht is 3 uur en het 15 minuten geleden gemaakt, om 12:56 UTC
Verwachting geldig van 20 om 13 UTC tot 20 om 22 UTC
Wind 8 kt uit het oostnoordoosten
Zicht 10 km of meer
Weinig wolken op 4500 ft
Tijdelijke
van 20 om 14 UTC tot 20 om 18 UTC
Wind 12 kt uit het oosten
Gebroken wolken op 6000 ft

TAF: EBCV 201256Z 2013/2022 06008KT 9999 FEW045 TEMPO 2014/2018 09012KT BKN060 BY EBWM

Waarnemingen en weersverwachtingen van meer dan 4000 vliegvelden (METAR en TAF).

De beschikbare stations zijn de gele en rode punten op de kaart.

Ga met uw muis naar het station om de naam te zien.

Klik dan om waarnemingen en weersverwachtingen te zien.

kaart wijzigen: klik op de groene knoppen met een zwart kruis om in te zoomen, op de groene knop met een streepje om uit te zoomen of op de groene pijlen voor aangrenzende kaarten.


METAR-TAF: